Time;durP1;ratioP1;P1;durP2;ratioP2;P2;SDS_P1;SDS_P2;PMS_P1;PMS_P2;Temp;Humidity;BMP_temperature;BMP_pressure;BME280_temperature;BME280_humidity;BME280_pressure;Samples;Min_cycle;Max_cycle;Signal;HPM_P1;HPM_P2
2021/12/31 00:00:52;;;;;;;20.35;8.85;;;6.10;91.10;;;;;;1891577;76;21059;-44
2021/12/31 00:03:21;;;;;;;34.15;9.55;;;6.10;90.90;;;;;;1891590;75;21032;-44
2021/12/31 00:05:50;;;;;;;20.35;9.10;;;6.00;90.90;;;;;;1891741;76;21028;-45
2021/12/31 00:08:20;;;;;;;23.00;8.53;;;6.10;91.10;;;;;;1891701;76;21040;-44
2021/12/31 00:10:54;;;;;;;22.58;8.58;;;6.00;90.90;;;;;;1891684;75;21086;-44
2021/12/31 00:13:20;;;;;;;20.12;8.45;;;6.00;91.00;;;;;;1891196;75;21044;-44
2021/12/31 00:15:50;;;;;;;20.05;9.20;;;6.00;91.20;;;;;;1891730;76;21467;-45
2021/12/31 00:18:19;;;;;;;22.05;9.88;;;6.10;91.20;;;;;;1891682;76;21044;-44
2021/12/31 00:20:48;;;;;;;32.10;11.60;;;6.10;91.00;;;;;;1891692;76;21032;-44
2021/12/31 00:23:23;;;;;;;26.17;10.30;;;6.10;90.90;;;;;;1891577;75;21098;-44
2021/12/31 00:25:49;;;;;;;20.75;9.65;;;6.10;90.90;;;;;;1891242;75;21059;-44
2021/12/31 00:28:19;;;;;;;27.55;12.23;;;6.10;90.90;;;;;;1891574;76;21032;-45
2021/12/31 00:30:53;;;;;;;24.63;10.88;;;6.00;90.90;;;;;;1891660;76;21032;-44
2021/12/31 00:33:19;;;;;;;25.80;10.08;;;6.00;90.90;;;;;;1891193;75;21016;-44
2021/12/31 00:35:48;;;;;;;25.57;9.80;;;5.90;90.70;;;;;;1874545;75;21033;-44
2021/12/31 00:38:18;;;;;;;26.23;10.00;;;5.90;90.70;;;;;;1872954;75;21034;-44
2021/12/31 00:40:47;;;;;;;29.82;10.08;;;5.80;90.90;;;;;;1873041;77;21119;-44
2021/12/31 00:43:17;;;;;;;20.27;10.50;;;5.80;91.10;;;;;;1872861;75;21083;-44
2021/12/31 00:45:46;;;;;;;32.78;9.18;;;5.80;91.20;;;;;;1872892;76;21083;-44
2021/12/31 00:48:16;;;;;;;27.02;9.45;;;5.80;91.00;;;;;;1872797;77;21065;-44
2021/12/31 00:50:45;;;;;;;17.05;7.20;;;5.80;91.10;;;;;;1872855;75;21033;-44
2021/12/31 00:53:15;;;;;;;27.32;8.58;;;5.80;91.00;;;;;;1872941;76;21054;-45
2021/12/31 00:55:44;;;;;;;21.68;7.85;;;5.70;90.70;;;;;;1872870;75;21029;-45
2021/12/31 00:58:14;;;;;;;22.10;9.20;;;5.70;91.00;;;;;;1872854;76;21014;-44
2021/12/31 01:00:43;;;;;;;17.12;8.58;;;5.70;91.20;;;;;;1872961;75;21072;-43
2021/12/31 01:03:12;;;;;;;23.98;7.42;;;5.80;91.10;;;;;;1872942;75;21037;-45
2021/12/31 01:05:42;;;;;;;19.62;7.97;;;5.80;91.00;;;;;;1873033;76;21472;-44
2021/12/31 01:08:11;;;;;;;20.88;7.40;;;5.90;91.00;;;;;;1872919;75;21073;-45
2021/12/31 01:10:41;;;;;;;19.05;7.72;;;5.80;90.90;;;;;;1872994;75;21053;-43
2021/12/31 01:13:15;;;;;;;14.87;7.17;;;5.80;90.70;;;;;;1872835;75;21135;-44
2021/12/31 01:15:45;;;;;;;19.30;7.60;;;5.70;90.80;;;;;;1872305;75;21037;-44
2021/12/31 01:20:44;;;;;;;26.27;8.73;;;5.70;91.00;;;;;;1872989;75;21171;-45
2021/12/31 01:23:15;;;;;;;20.40;7.65;;;5.70;91.20;;;;;;1872858;76;21034;-44
2021/12/31 01:25:44;;;;;;;14.58;7.42;;;5.70;91.10;;;;;;1873006;75;21077;-45
2021/12/31 01:28:13;;;;;;;31.17;7.97;;;5.70;91.00;;;;;;1872912;75;21033;-45
2021/12/31 01:30:42;;;;;;;20.92;7.87;;;5.70;90.90;;;;;;1872947;76;21034;-45
2021/12/31 01:33:12;;;;;;;15.98;7.83;;;5.70;90.80;;;;;;1872948;75;21026;-45
2021/12/31 01:35:41;;;;;;;14.90;7.67;;;5.60;90.80;;;;;;1872951;75;21049;-44
2021/12/31 01:38:11;;;;;;;18.73;8.68;;;5.50;90.90;;;;;;1872923;75;21049;-44
2021/12/31 01:40:41;;;;;;;14.87;6.97;;;5.50;90.80;;;;;;1872812;77;21162;-43
2021/12/31 01:43:13;;;;;;;22.30;9.33;;;5.40;90.70;;;;;;1872966;76;21102;-44
2021/12/31 01:46:16;;;;;;;24.70;9.75;;;5.40;90.80;;;;;;1872989;75;21538;-46
2021/12/31 01:48:36;;;;;;;20.45;7.95;;;5.30;91.00;;;;;;1866137;76;21099;-45
2021/12/31 01:50:56;;;;;;;19.45;8.58;;;5.30;91.10;;;;;;1870348;76;21009;-44
2021/12/31 01:53:28;;;;;;;27.60;8.48;;;5.30;91.10;;;;;;1872904;77;21062;-45
2021/12/31 01:55:59;;;;;;;16.82;7.70;;;5.30;91.10;;;;;;1872954;75;21138;-44
2021/12/31 01:58:29;;;;;;;18.23;8.15;;;5.30;91.00;;;;;;1872833;75;21109;-45
2021/12/31 02:01:03;;;;;;;29.27;8.85;;;5.30;91.10;;;;;;1872783;76;21087;-45
2021/12/31 02:03:29;;;;;;;25.30;7.50;;;5.40;91.10;;;;;;1872138;75;21499;-44
2021/12/31 02:05:59;;;;;;;38.45;8.60;;;5.40;91.30;;;;;;1872771;75;21009;-44
2021/12/31 02:08:30;;;;;;;42.65;9.30;;;5.50;91.40;;;;;;1872758;75;21001;-44
2021/12/31 02:10:59;;;;;;;29.20;7.58;;;5.60;91.40;;;;;;1872961;76;21107;-46
2021/12/31 02:13:29;;;;;;;26.60;8.43;;;5.70;91.70;;;;;;1872887;77;21147;-44
2021/12/31 02:15:59;;;;;;;18.35;7.53;;;5.80;91.40;;;;;;1872746;75;21058;-44
2021/12/31 02:18:30;;;;;;;21.23;7.65;;;5.90;91.20;;;;;;1872897;75;21092;-45
2021/12/31 02:21:01;;;;;;;20.15;7.90;;;5.90;91.20;;;;;;1872910;75;21033;-44
2021/12/31 02:23:39;;;;;;;19.82;8.65;;;6.00;91.20;;;;;;1872932;77;21072;-44
2021/12/31 02:26:01;;;;;;;14.83;7.20;;;6.00;90.70;;;;;;1871261;77;21119;-44
2021/12/31 02:28:30;;;;;;;16.50;6.92;;;5.90;90.70;;;;;;1872870;75;21101;-44
2021/12/31 02:31:03;;;;;;;25.17;8.33;;;5.90;91.00;;;;;;1873041;76;21038;-45
2021/12/31 02:33:32;;;;;;;19.60;7.60;;;5.90;91.00;;;;;;1872822;76;21085;-44
2021/12/31 02:36:03;;;;;;;18.82;9.63;;;5.90;91.10;;;;;;1872502;75;21049;-44
2021/12/31 02:38:32;;;;;;;23.42;8.40;;;6.00;91.10;;;;;;1872839;77;21037;-44
2021/12/31 02:41:03;;;;;;;17.02;8.58;;;5.90;91.10;;;;;;1872733;75;21033;-44
2021/12/31 02:43:32;;;;;;;33.83;10.15;;;5.90;91.30;;;;;;1872921;75;21010;-44
2021/12/31 02:46:01;;;;;;;23.10;8.35;;;6.00;91.30;;;;;;1872957;77;21013;-45
2021/12/31 02:48:31;;;;;;;32.25;8.20;;;6.10;91.00;;;;;;1872951;75;21152;-44
2021/12/31 02:51:02;;;;;;;35.52;8.88;;;6.00;90.90;;;;;;1872915;77;21034;-47
2021/12/31 02:53:40;;;;;;;13.85;7.22;;;6.00;91.00;;;;;;1872866;77;21134;-44
2021/12/31 02:56:13;;;;;;;18.23;8.15;;;6.10;91.20;;;;;;1872882;75;21079;-45
2021/12/31 02:58:45;;;;;;;19.20;7.42;;;6.10;91.10;;;;;;1873070;77;21057;-44
2021/12/31 03:01:14;;;;;;;26.37;8.50;;;6.10;91.00;;;;;;1872928;75;21046;-45
2021/12/31 03:03:45;;;;;;;15.70;7.87;;;6.10;91.10;;;;;;1872784;77;21017;-44
2021/12/31 03:06:14;;;;;;;14.38;7.90;;;6.10;91.10;;;;;;1873031;76;21108;-45
2021/12/31 03:08:45;;;;;;;38.75;9.28;;;6.10;91.00;;;;;;1872821;76;21033;-44
2021/12/31 03:11:18;;;;;;;10.78;7.42;;;6.10;91.00;;;;;;1872872;75;21508;-44
2021/12/31 03:13:51;;;;;;;13.18;7.15;;;6.10;91.10;;;;;;1872850;77;21092;-45
2021/12/31 03:16:22;;;;;;;14.45;6.53;;;6.10;91.10;;;;;;1872907;75;21025;-44
2021/12/31 03:18:52;;;;;;;24.37;8.98;;;6.10;91.10;;;;;;1872864;75;21030;-44
2021/12/31 03:21:22;;;;;;;31.27;8.73;;;6.10;91.20;;;;;;1872829;75;21053;-44
2021/12/31 03:23:52;;;;;;;17.92;6.83;;;6.10;90.80;;;;;;1872945;75;21091;-44
2021/12/31 03:26:22;;;;;;;53.78;8.65;;;6.00;90.70;;;;;;1872896;75;21135;-44
2021/12/31 03:28:52;;;;;;;18.50;6.45;;;5.90;91.00;;;;;;1872959;76;21068;-44
2021/12/31 03:31:21;;;;;;;19.62;6.87;;;5.90;90.80;;;;;;1872982;76;21082;-44
2021/12/31 03:33:50;;;;;;;21.25;7.33;;;5.80;90.70;;;;;;1872939;75;21030;-47
2021/12/31 03:36:20;;;;;;;21.93;6.65;;;5.70;90.70;;;;;;1873018;75;21061;-45
2021/12/31 03:38:49;;;;;;;15.68;5.80;;;5.60;90.70;;;;;;1873120;75;21030;-43
2021/12/31 03:41:19;;;;;;;13.55;5.95;;;5.60;90.90;;;;;;1872894;75;21029;-44
2021/12/31 03:43:49;;;;;;;14.10;5.20;;;5.50;91.00;;;;;;1872991;75;21053;-44
2021/12/31 03:46:19;;;;;;;9.55;4.80;;;5.50;91.10;;;;;;1872891;75;21042;-45
2021/12/31 03:48:48;;;;;;;9.38;5.58;;;5.60;91.10;;;;;;1872833;76;21083;-44
2021/12/31 03:51:17;;;;;;;10.10;4.83;;;5.60;91.00;;;;;;1872795;75;21030;-44
2021/12/31 03:53:47;;;;;;;16.05;5.80;;;5.60;91.10;;;;;;1872776;75;21026;-44
2021/12/31 03:56:18;;;;;;;14.55;5.72;;;5.70;91.20;;;;;;1872944;75;21034;-44
2021/12/31 03:58:46;;;;;;;9.25;5.37;;;5.70;91.50;;;;;;1872920;75;21030;-43
2021/12/31 04:01:16;;;;;;;14.50;5.85;;;5.70;91.20;;;;;;1872812;77;21152;-44
2021/12/31 04:03:45;;;;;;;11.93;5.22;;;5.80;91.20;;;;;;1872890;75;21101;-44
2021/12/31 04:06:14;;;;;;;13.60;5.53;;;5.90;91.30;;;;;;1873062;77;21025;-44
2021/12/31 04:08:44;;;;;;;14.33;5.65;;;5.90;91.20;;;;;;1872951;76;21026;-44
2021/12/31 04:11:13;;;;;;;11.63;5.58;;;5.90;91.20;;;;;;1873093;76;21096;-44
2021/12/31 04:13:42;;;;;;;10.55;5.53;;;6.00;91.20;;;;;;1873014;77;21096;-45
2021/12/31 04:16:12;;;;;;;14.23;5.92;;;6.00;91.20;;;;;;1872930;77;21029;-44
2021/12/31 04:18:42;;;;;;;11.38;5.72;;;6.00;90.90;;;;;;1872872;75;21041;-44
2021/12/31 04:21:15;;;;;;;13.05;5.75;;;5.90;90.80;;;;;;1872820;75;21096;-44
2021/12/31 04:23:51;;;;;;;12.90;6.12;;;5.90;91.10;;;;;;1872289;75;21034;-44
2021/12/31 04:26:19;;;;;;;27.95;6.75;;;6.00;91.20;;;;;;1872574;76;21050;-44
2021/12/31 04:28:48;;;;;;;10.35;5.42;;;5.90;91.00;;;;;;1872863;76;21029;-43
2021/12/31 04:31:18;;;;;;;29.63;6.50;;;5.90;90.70;;;;;;1873046;75;21029;-44
2021/12/31 04:33:47;;;;;;;10.15;5.55;;;5.80;90.40;;;;;;1872839;77;21027;-44
2021/12/31 04:36:17;;;;;;;15.05;5.67;;;5.70;90.70;;;;;;1872816;75;21484;-44
2021/12/31 04:38:46;;;;;;;19.92;5.85;;;5.60;90.80;;;;;;1872775;76;21069;-44
2021/12/31 04:41:16;;;;;;;8.18;5.22;;;5.60;90.90;;;;;;1872802;75;21077;-44
2021/12/31 04:43:45;;;;;;;8.10;4.92;;;5.60;90.90;;;;;;1872774;77;21030;-45
2021/12/31 04:46:14;;;;;;;10.55;5.33;;;5.50;90.90;;;;;;1872894;76;21104;-45
2021/12/31 04:48:44;;;;;;;19.37;5.22;;;5.50;90.80;;;;;;1872724;75;21103;-45
2021/12/31 04:51:13;;;;;;;8.13;5.67;;;5.50;90.60;;;;;;1872812;75;21150;-45
2021/12/31 04:53:42;;;;;;;21.07;11.10;;;5.40;90.80;;;;;;1872935;75;21091;-45
2021/12/31 04:56:11;;;;;;;13.32;7.58;;;5.30;90.70;;;;;;1872951;76;21465;-45
2021/12/31 04:58:41;;;;;;;18.23;8.15;;;5.30;90.90;;;;;;1872846;75;21041;-44
2021/12/31 05:01:10;;;;;;;13.95;5.72;;;5.30;91.00;;;;;;1872880;75;21033;-45
2021/12/31 05:03:40;;;;;;;12.63;6.92;;;5.30;90.90;;;;;;1872963;75;21009;-45
2021/12/31 05:06:09;;;;;;;9.78;5.58;;;5.30;90.90;;;;;;1872971;77;21103;-45
2021/12/31 05:08:39;;;;;;;18.25;6.47;;;5.30;91.00;;;;;;1872799;76;21101;-44
2021/12/31 05:11:08;;;;;;;8.08;5.40;;;5.30;91.20;;;;;;1872797;76;21025;-45
2021/12/31 05:13:38;;;;;;;11.15;6.08;;;5.40;91.20;;;;;;1872913;77;21015;-45
2021/12/31 05:16:07;;;;;;;15.90;5.62;;;5.50;91.30;;;;;;1872769;75;21034;-45
2021/12/31 05:18:36;;;;;;;18.07;9.53;;;5.60;91.20;;;;;;1872840;76;21037;-45
2021/12/31 05:21:06;;;;;;;9.03;6.40;;;5.60;91.20;;;;;;1872817;77;21139;-44
2021/12/31 05:23:35;;;;;;;12.45;7.03;;;5.70;91.10;;;;;;1872731;75;21332;-45
2021/12/31 05:26:05;;;;;;;12.40;7.03;;;5.70;90.70;;;;;;1872897;77;21025;-45
2021/12/31 05:28:34;;;;;;;10.98;6.10;;;5.70;90.50;;;;;;1872800;75;21037;-45
2021/12/31 05:31:03;;;;;;;10.90;7.15;;;5.60;90.70;;;;;;1872800;77;21030;-45
2021/12/31 05:33:33;;;;;;;11.63;6.95;;;5.50;90.60;;;;;;1872873;76;21033;-45
2021/12/31 05:36:02;;;;;;;10.58;6.53;;;5.40;90.70;;;;;;1872807;76;21067;-45
2021/12/31 05:38:31;;;;;;;9.50;5.65;;;5.40;91.00;;;;;;1872910;75;21045;-44
2021/12/31 05:41:01;;;;;;;8.80;6.67;;;5.50;91.30;;;;;;1872834;75;21058;-45
2021/12/31 05:43:30;;;;;;;10.93;6.62;;;5.60;91.30;;;;;;1872920;75;21025;-44
2021/12/31 05:46:00;;;;;;;10.63;6.42;;;5.70;91.00;;;;;;1872835;76;21030;-44
2021/12/31 05:48:34;;;;;;;9.20;6.20;;;5.70;91.00;;;;;;1872882;76;21034;-45
2021/12/31 05:51:00;;;;;;;11.88;7.47;;;5.70;90.90;;;;;;1872383;75;21097;-44
2021/12/31 05:53:30;;;;;;;13.00;6.97;;;5.70;90.90;;;;;;1872974;77;21033;-46
2021/12/31 05:55:59;;;;;;;9.93;6.60;;;5.80;90.90;;;;;;1872832;75;21099;-45
2021/12/31 05:58:28;;;;;;;11.90;6.92;;;5.80;90.90;;;;;;1872864;76;21034;-46
2021/12/31 06:00:58;;;;;;;12.73;7.30;;;5.80;91.00;;;;;;1872830;75;21053;-44
2021/12/31 06:03:27;;;;;;;20.55;12.10;;;5.90;91.10;;;;;;1872748;75;21037;-45
2021/12/31 06:05:57;;;;;;;17.00;9.48;;;5.90;90.80;;;;;;1872909;76;21046;-45
2021/12/31 06:08:26;;;;;;;12.33;7.33;;;5.90;90.90;;;;;;1872869;75;21056;-45
2021/12/31 06:10:56;;;;;;;15.23;7.97;;;5.90;91.00;;;;;;1872821;77;21134;-45
2021/12/31 06:13:25;;;;;;;14.05;7.45;;;5.90;91.00;;;;;;1872722;75;21065;-45
2021/12/31 06:15:57;;;;;;;12.47;7.45;;;6.00;91.00;;;;;;1872825;77;21026;-45
2021/12/31 06:18:27;;;;;;;12.65;7.08;;;6.00;90.40;;;;;;1872760;75;21507;-45
2021/12/31 06:20:56;;;;;;;10.95;7.10;;;5.90;90.60;;;;;;1872819;77;21084;-45
2021/12/31 06:23:25;;;;;;;11.70;7.75;;;5.90;90.80;;;;;;1872778;77;21034;-45
2021/12/31 06:25:55;;;;;;;14.63;8.93;;;5.90;90.90;;;;;;1872809;75;21039;-44
2021/12/31 06:28:24;;;;;;;13.05;7.62;;;5.90;90.70;;;;;;1872795;75;21022;-44
2021/12/31 06:30:53;;;;;;;12.18;7.03;;;6.00;90.80;;;;;;1872848;76;21022;-44
2021/12/31 06:33:23;;;;;;;14.50;7.95;;;5.90;90.30;;;;;;1872755;75;21033;-45
2021/12/31 06:35:52;;;;;;;13.00;7.70;;;5.80;90.70;;;;;;1872854;75;21005;-46
2021/12/31 06:38:21;;;;;;;14.93;8.48;;;5.80;90.80;;;;;;1872791;75;21139;-44
2021/12/31 06:40:50;;;;;;;15.35;9.45;;;5.80;90.70;;;;;;1872747;75;21025;-44
2021/12/31 06:43:20;;;;;;;14.38;7.95;;;5.80;90.80;;;;;;1872729;77;21005;-45
2021/12/31 06:45:49;;;;;;;11.93;7.78;;;5.80;90.90;;;;;;1872916;75;21124;-45
2021/12/31 06:48:19;;;;;;;15.83;7.92;;;5.80;90.70;;;;;;1872785;75;21017;-44
2021/12/31 06:50:48;;;;;;;15.55;8.25;;;5.80;90.60;;;;;;1872905;75;21033;-44
2021/12/31 06:53:18;;;;;;;14.63;9.03;;;5.70;90.40;;;;;;1872704;75;21006;-45
2021/12/31 06:55:47;;;;;;;16.37;8.78;;;5.60;90.20;;;;;;1872869;75;21069;-47
2021/12/31 06:58:16;;;;;;;18.05;8.93;;;5.60;90.70;;;;;;1872830;75;21076;-47
2021/12/31 07:00:45;;;;;;;15.03;9.03;;;5.60;91.00;;;;;;1872831;76;21068;-44
2021/12/31 07:03:15;;;;;;;15.20;9.30;;;5.60;90.90;;;;;;1872786;76;21073;-44
2021/12/31 07:05:45;;;;;;;13.53;8.48;;;5.70;91.10;;;;;;1873020;75;21030;-45
2021/12/31 07:08:14;;;;;;;19.17;9.20;;;5.80;91.10;;;;;;1872966;75;21037;-47
2021/12/31 07:10:44;;;;;;;16.93;8.70;;;5.80;90.70;;;;;;1872841;75;21088;-45
2021/12/31 07:13:13;;;;;;;18.12;8.33;;;5.80;90.70;;;;;;1872920;75;21029;-45
2021/12/31 07:15:49;;;;;;;12.43;8.20;;;5.80;90.90;;;;;;1872888;76;21022;-45
2021/12/31 07:18:17;;;;;;;;;;;5.90;91.00;;;;;;1875599;76;21038;-44
2021/12/31 07:20:46;;;;;;;13.88;7.70;;;5.90;90.40;;;;;;1872862;76;20240;-45
2021/12/31 07:23:18;;;;;;;12.33;6.85;;;5.80;90.20;;;;;;1872860;75;21010;-45
2021/12/31 07:25:48;;;;;;;15.65;8.73;;;5.70;90.30;;;;;;1872917;77;21033;-46
2021/12/31 07:28:18;;;;;;;13.48;7.92;;;5.70;90.70;;;;;;1872971;75;21033;-44
2021/12/31 07:30:48;;;;;;;13.68;8.63;;;5.70;90.80;;;;;;1872937;76;21054;-44
2021/12/31 07:33:19;;;;;;;20.45;12.07;;;5.70;90.90;;;;;;1872844;75;21138;-45
2021/12/31 07:35:49;;;;;;;11.83;8.65;;;5.80;90.80;;;;;;1872869;75;21112;-45
2021/12/31 07:38:33;;;;;;;16.40;8.43;;;5.80;90.60;;;;;;1872691;76;21046;-45
2021/12/31 07:40:52;;;;;;;13.65;8.70;;;5.80;90.50;;;;;;1870369;75;21033;-44
2021/12/31 07:43:22;;;;;;;19.35;11.60;;;5.80;90.60;;;;;;1872692;76;21166;-44
2021/12/31 07:45:52;;;;;;;17.40;10.10;;;5.80;90.60;;;;;;1872812;76;21095;-44
2021/12/31 07:48:22;;;;;;;13.08;8.73;;;5.80;90.60;;;;;;1872779;76;21088;-45
2021/12/31 07:50:53;;;;;;;12.50;8.03;;;5.90;90.70;;;;;;1872889;75;21065;-45
2021/12/31 07:53:22;;;;;;;10.85;7.53;;;5.90;90.80;;;;;;1872845;76;21038;-45
2021/12/31 07:55:51;;;;;;;12.85;8.53;;;6.00;90.90;;;;;;1872921;76;21092;-44
2021/12/31 07:58:21;;;;;;;12.47;7.75;;;6.10;90.90;;;;;;1872866;75;21096;-45
2021/12/31 08:00:50;;;;;;;11.75;7.85;;;6.20;90.80;;;;;;1872961;76;21088;-44
2021/12/31 08:03:20;;;;;;;13.83;8.40;;;6.20;90.80;;;;;;1872951;77;21033;-45
2021/12/31 08:05:49;;;;;;;9.75;7.37;;;6.30;90.50;;;;;;1872955;75;21037;-45
2021/12/31 08:08:19;;;;;;;11.00;6.97;;;6.30;90.10;;;;;;1872806;75;21025;-44
2021/12/31 08:10:49;;;;;;;11.28;6.80;;;6.30;90.40;;;;;;1872953;75;21112;-45
2021/12/31 08:13:18;;;;;;;14.28;8.05;;;6.30;90.50;;;;;;1872894;76;21006;-46
2021/12/31 08:15:48;;;;;;;10.05;6.37;;;6.30;90.70;;;;;;1872900;75;21038;-46
2021/12/31 08:18:17;;;;;;;13.68;7.65;;;6.40;90.50;;;;;;1872873;77;21061;-44
2021/12/31 08:20:46;;;;;;;41.37;24.37;;;6.40;90.30;;;;;;1872870;76;21021;-44
2021/12/31 08:23:16;;;;;;;10.35;7.08;;;6.40;90.40;;;;;;1872842;75;21066;-44
2021/12/31 08:25:46;;;;;;;8.53;6.15;;;6.40;89.70;;;;;;1873001;75;21033;-44
2021/12/31 08:28:16;;;;;;;9.68;6.80;;;6.40;90.30;;;;;;1872812;75;21030;-44
2021/12/31 08:30:45;;;;;;;9.05;6.80;;;6.40;90.50;;;;;;1872957;75;21072;-45
2021/12/31 08:33:15;;;;;;;8.35;5.95;;;6.50;90.40;;;;;;1872869;75;21037;-45
2021/12/31 08:35:44;;;;;;;9.48;7.40;;;6.60;90.50;;;;;;1872948;75;21027;-45
2021/12/31 08:38:14;;;;;;;9.13;6.33;;;6.70;90.60;;;;;;1872959;77;21033;-45
2021/12/31 08:40:43;;;;;;;7.58;5.60;;;6.80;90.40;;;;;;1872897;75;21057;-44
2021/12/31 08:43:12;;;;;;;10.45;6.50;;;6.90;90.30;;;;;;1872810;75;21025;-45
2021/12/31 08:45:42;;;;;;;7.90;5.53;;;6.90;90.30;;;;;;1872743;75;21010;-44
2021/12/31 08:48:11;;;;;;;8.55;6.53;;;7.00;90.30;;;;;;1872899;77;21018;-45
2021/12/31 08:50:41;;;;;;;11.65;7.30;;;7.00;90.00;;;;;;1872929;75;21025;-45
2021/12/31 08:53:10;;;;;;;11.28;8.23;;;7.10;90.10;;;;;;1872834;76;21083;-45
2021/12/31 08:55:40;;;;;;;10.05;7.62;;;7.20;89.90;;;;;;1872972;77;21124;-45
2021/12/31 08:58:09;;;;;;;11.63;7.83;;;7.20;90.00;;;;;;1872906;75;21022;-44
2021/12/31 09:00:39;;;;;;;8.43;6.90;;;7.20;90.00;;;;;;1872882;75;21029;-44
2021/12/31 09:03:08;;;;;;;12.43;6.67;;;7.20;89.10;;;;;;1872934;75;21034;-45
2021/12/31 09:05:38;;;;;;;9.85;7.55;;;7.20;89.70;;;;;;1872931;76;21100;-45
2021/12/31 09:08:07;;;;;;;13.03;8.25;;;7.20;89.80;;;;;;1872943;77;21123;-46
2021/12/31 09:10:36;;;;;;;11.30;7.45;;;7.30;90.00;;;;;;1872883;75;21022;-44
2021/12/31 09:13:06;;;;;;;11.30;6.97;;;7.30;89.70;;;;;;1873043;77;21218;-44
2021/12/31 09:15:35;;;;;;;11.57;7.05;;;7.40;89.90;;;;;;1872877;75;21005;-44
2021/12/31 09:18:05;;;;;;;13.60;8.55;;;7.40;89.80;;;;;;1872847;75;21083;-45
2021/12/31 09:20:34;;;;;;;11.83;8.13;;;7.50;90.00;;;;;;1872786;75;21083;-44
2021/12/31 09:23:03;;;;;;;16.00;10.30;;;7.60;90.00;;;;;;1872836;76;21107;-44
2021/12/31 09:25:32;;;;;;;17.70;10.78;;;7.70;89.10;;;;;;1872907;76;21009;-45
2021/12/31 09:28:02;;;;;;;17.30;9.95;;;7.70;89.00;;;;;;1872898;77;21058;-45
2021/12/31 09:30:32;;;;;;;13.75;10.08;;;7.70;89.20;;;;;;1872838;75;21115;-44
2021/12/31 09:33:01;;;;;;;17.70;11.22;;;7.70;89.10;;;;;;1872882;75;21006;-45
2021/12/31 09:35:31;;;;;;;16.15;11.18;;;7.70;89.00;;;;;;1872895;76;21025;-45
2021/12/31 09:38:02;;;;;;;20.27;11.43;;;7.70;88.50;;;;;;1872767;76;21037;-45
2021/12/31 09:40:31;;;;;;;18.12;10.98;;;7.70;88.80;;;;;;1872750;75;21065;-45
2021/12/31 09:43:12;;;;;;;18.45;11.73;;;7.70;89.30;;;;;;1872745;77;21069;-44
2021/12/31 09:45:44;;;;;;;17.73;11.50;;;7.80;89.00;;;;;;1872915;75;21026;-45
2021/12/31 09:48:16;;;;;;;18.17;10.95;;;7.80;88.30;;;;;;1872881;75;21025;-46
2021/12/31 09:50:48;;;;;;;16.97;10.38;;;7.80;88.70;;;;;;1872859;75;21002;-44
2021/12/31 09:53:19;;;;;;;14.95;10.80;;;7.80;88.70;;;;;;1872929;75;21085;-44
2021/12/31 09:55:54;;;;;;;15.63;10.90;;;7.80;87.50;;;;;;1872989;77;21068;-45
2021/12/31 09:58:27;;;;;;;18.57;11.45;;;7.80;88.60;;;;;;1872166;75;21033;-44
2021/12/31 10:01:01;;;;;;;17.67;10.48;;;7.90;88.80;;;;;;1872769;77;21127;-45
2021/12/31 10:03:32;;;;;;;17.90;11.38;;;7.90;88.40;;;;;;1872813;77;21088;-44
2021/12/31 10:06:09;;;;;;;20.65;11.63;;;7.90;88.40;;;;;;1872914;75;21037;-44
2021/12/31 10:08:46;;;;;;;21.95;11.00;;;8.00;88.80;;;;;;1872789;75;21146;-44
2021/12/31 10:11:25;;;;;;;21.00;11.57;;;8.00;87.80;;;;;;1872663;76;21083;-44
2021/12/31 10:13:57;;;;;;;20.00;12.35;;;8.00;88.10;;;;;;1872816;75;21299;-45
2021/12/31 10:16:28;;;;;;;23.22;13.18;;;8.10;88.40;;;;;;1872818;75;21022;-45
2021/12/31 10:19:12;;;;;;;24.27;13.35;;;8.00;88.20;;;;;;1872738;77;21029;-45
2021/12/31 10:21:49;;;;;;;25.50;13.50;;;8.10;88.20;;;;;;1872660;75;21045;-45
2021/12/31 10:24:35;;;;;;;29.72;15.93;;;8.10;88.20;;;;;;1872877;75;21128;-44
2021/12/31 10:27:14;;;;;;;27.10;16.00;;;8.10;87.80;;;;;;1872840;75;21049;-45
2021/12/31 10:30:00;;;;;;;35.65;21.37;;;8.10;88.40;;;;;;1872720;77;21104;-45
2021/12/31 10:32:31;;;;;;;23.83;16.35;;;8.00;88.00;;;;;;1872831;75;21535;-44
2021/12/31 10:35:14;;;;;;;28.20;16.27;;;8.10;88.30;;;;;;1872810;75;21519;-45
2021/12/31 10:37:45;;;;;;;24.47;17.05;;;8.10;88.70;;;;;;1872788;75;21091;-45
2021/12/31 10:40:29;;;;;;;22.17;15.45;;;8.10;88.10;;;;;;1872804;75;21057;-44
2021/12/31 10:43:15;;;;;;;22.25;14.83;;;8.10;88.40;;;;;;1872986;75;21543;-46
2021/12/31 10:46:02;;;;;;;19.90;13.05;;;8.10;88.60;;;;;;1872899;76;21054;-45
2021/12/31 10:48:49;;;;;;;21.25;13.45;;;8.10;88.20;;;;;;1872946;77;21080;-45
2021/12/31 10:51:21;;;;;;;18.00;12.63;;;8.10;88.20;;;;;;1872772;76;21072;-44
2021/12/31 10:53:53;;;;;;;18.90;12.20;;;8.10;87.80;;;;;;1870613;75;21476;-45
2021/12/31 10:56:22;;;;;;;20.30;12.55;;;8.00;88.50;;;;;;1872989;76;21084;-44
2021/12/31 10:58:59;;;;;;;16.35;10.18;;;8.00;88.30;;;;;;1872934;76;21010;-45
2021/12/31 11:01:28;;;;;;;21.37;12.37;;;7.90;87.40;;;;;;1872899;75;21002;-44
2021/12/31 11:03:58;;;;;;;20.20;12.78;;;7.90;87.90;;;;;;1872867;75;21058;-45
2021/12/31 11:06:28;;;;;;;19.60;12.47;;;7.80;88.10;;;;;;1872870;75;21029;-47
2021/12/31 11:09:05;;;;;;;22.90;14.50;;;7.70;87.50;;;;;;1872780;77;21033;-44
2021/12/31 11:11:29;;;;;;;20.92;12.43;;;7.70;88.30;;;;;;1871917;75;21057;-44
2021/12/31 11:14:00;;;;;;;21.82;13.05;;;7.70;88.40;;;;;;1872869;75;21108;-45
2021/12/31 11:16:30;;;;;;;20.10;11.60;;;7.70;88.20;;;;;;1872898;75;21143;-45
2021/12/31 11:18:59;;;;;;;19.65;12.63;;;7.60;88.30;;;;;;1872951;76;21092;-44
2021/12/31 11:21:28;;;;;;;22.58;13.55;;;7.60;88.50;;;;;;1872765;77;21029;-45
2021/12/31 11:24:00;;;;;;;19.92;11.93;;;7.60;88.60;;;;;;1872764;75;21025;-44
2021/12/31 11:26:30;;;;;;;22.60;13.43;;;7.60;88.30;;;;;;1865964;77;21030;-44
2021/12/31 11:29:02;;;;;;;18.80;11.70;;;7.60;88.50;;;;;;1872864;77;21150;-44
2021/12/31 11:31:32;;;;;;;27.40;14.13;;;7.50;88.70;;;;;;1868579;75;21550;-45
2021/12/31 11:34:09;;;;;;;25.17;14.25;;;7.50;88.80;;;;;;1872901;75;21034;-44
2021/12/31 11:36:41;;;;;;;21.02;12.73;;;7.50;88.80;;;;;;1872825;75;21050;-44
2021/12/31 11:39:25;;;;;;;25.25;13.08;;;7.50;88.90;;;;;;1872872;75;21038;-44
2021/12/31 11:41:58;;;;;;;21.95;12.33;;;7.50;89.10;;;;;;1872745;75;21061;-44
2021/12/31 11:44:28;;;;;;;21.05;11.97;;;7.50;89.20;;;;;;1872853;76;21057;-44
2021/12/31 11:47:17;;;;;;;21.50;12.40;;;7.50;89.30;;;;;;1872814;75;21025;-45
2021/12/31 11:49:47;;;;;;;18.27;11.15;;;7.50;88.80;;;;;;1872795;75;21023;-44
2021/12/31 11:52:23;;;;;;;14.95;9.63;;;7.60;89.40;;;;;;1872895;76;21033;-45
2021/12/31 11:54:55;;;;;;;18.32;10.38;;;7.50;89.10;;;;;;1873005;75;21099;-45
2021/12/31 11:57:31;;;;;;;16.95;10.50;;;7.50;89.40;;;;;;1862207;76;21022;-43
2021/12/31 12:00:00;;;;;;;19.60;10.78;;;7.50;89.20;;;;;;1872825;76;21147;-45
2021/12/31 12:02:38;;;;;;;18.02;9.88;;;7.50;89.30;;;;;;1872211;76;21010;-44
2021/12/31 12:05:12;;;;;;;17.82;11.10;;;7.50;89.20;;;;;;1872916;77;21432;-44
2021/12/31 12:07:45;;;;;;;16.95;11.08;;;7.40;89.20;;;;;;1872756;75;21112;-43
2021/12/31 12:10:15;;;;;;;22.93;13.35;;;7.40;89.20;;;;;;1872792;76;21030;-45
2021/12/31 12:12:50;;;;;;;23.80;12.53;;;7.40;89.40;;;;;;1872908;76;21111;-45
2021/12/31 12:15:22;;;;;;;24.00;11.97;;;7.40;89.60;;;;;;1872558;75;21053;-44
2021/12/31 12:17:51;;;;;;;20.02;11.20;;;7.40;89.70;;;;;;1873018;76;21050;-44
2021/12/31 12:20:23;;;;;;;22.05;12.75;;;7.40;89.40;;;;;;1872893;75;21087;-45
2021/12/31 12:22:56;;;;;;;26.97;13.58;;;7.30;89.40;;;;;;1872793;75;21436;-45
2021/12/31 12:25:31;;;;;;;24.98;12.65;;;7.30;89.40;;;;;;1873032;77;21026;-45
2021/12/31 12:28:12;;;;;;;26.93;12.95;;;7.30;89.60;;;;;;1873082;75;21038;-44
2021/12/31 12:30:50;;;;;;;28.47;15.78;;;7.20;89.80;;;;;;1872920;76;21033;-44
2021/12/31 12:33:25;;;;;;;22.17;12.30;;;7.20;90.00;;;;;;1873038;76;21472;-44
2021/12/31 12:35:55;;;;;;;23.15;12.82;;;7.10;89.70;;;;;;1873062;75;21057;-44
2021/12/31 12:38:27;;;;;;;21.42;12.23;;;7.10;90.10;;;;;;1872961;75;21124;-45
2021/12/31 12:41:02;;;;;;;21.23;11.30;;;7.10;90.10;;;;;;1872787;75;21083;-44
2021/12/31 12:43:37;;;;;;;19.10;12.05;;;7.10;90.10;;;;;;1872899;75;21089;-45
2021/12/31 12:46:07;;;;;;;;;;;7.10;90.00;;;;;;1875506;75;21033;-44
2021/12/31 12:48:46;;;;;;;22.62;13.43;;;7.10;90.30;;;;;;1872765;77;20348;-45
2021/12/31 12:51:17;;;;;;;19.98;11.18;;;7.10;90.00;;;;;;1872963;75;21565;-44
2021/12/31 12:53:49;;;;;;;20.27;11.65;;;7.10;89.90;;;;;;1872873;75;21029;-45
2021/12/31 12:56:21;;;;;;;21.00;12.53;;;7.00;90.00;;;;;;1872924;76;21103;-47
2021/12/31 12:58:53;;;;;;;22.10;12.53;;;7.00;90.00;;;;;;1872951;76;21420;-45
2021/12/31 13:01:40;;;;;;;21.55;11.73;;;7.00;90.00;;;;;;1872847;75;21484;-45
2021/12/31 13:04:11;;;;;;;21.12;12.50;;;7.00;90.00;;;;;;1872085;75;21538;-45
2021/12/31 13:06:42;;;;;;;20.75;11.60;;;7.00;90.10;;;;;;1872901;76;21034;-45